Airfield :
LOGIN :

Register | Disclaimer

   EN    FR    IT 

 










Legend :    VFR   Marginal VFR   IFR   Intensive IFR   Very Intensive IFR
Visi :
Ceiling :
>= 8 km
>= 3000ft
5 to 8 km
1000 to 3000 ft
1500m to 5 km
500 to 1000 ft
800 to 1500m
200 to 500 ft
< 800m
< 200 ft
Symbols :   Thunderstorms  Fog  Heavy snow  Heavy precipitations  Wind > 20 kt
SIGMETs :     Misc.  Thunderstorms  Icing  Turbulence  Mountain Waves  Volcanic Ashes







- Airport Elevation : 306 ft
- IATA code : EMA
- Download approach charts


EGNX - Nottingham East Midlands

CURRENT METAR :
  • 181650Z 14011KT 9999 SCT044 04/00 Q1011

EXPIRED METARs :
  • 181620Z 14011KT 9999 FEW045 04/M00 Q1012
  • 181550Z 14010KT 9999 FEW048 04/M01 Q1012
  • 181520Z 15010KT CAVOK 04/M00 Q1012
  • 181450Z 16010KT CAVOK 04/M00 Q1012

TAF TAF EGNX
Valid from the 18 at 12:00 until the 19 at 12:00 UTC


181059Z 1812/1912 15010KT 9999 SCT040
TEMPO 1814/1903 7000 RA BKN010
PROB30
TEMPO 1816/1903 17015G25KT 3000 -SN RASN BKN003
BECMG 1903/1906 BKN012
TEMPO 1903/1912 6000 -SHRA BKN009
PROB30
TEMPO 1903/1912 4000 SHRA BR BKN004
ATIS : +44 1332 852 852 (ext 3201)
No reported NOTAMs for that airfield.



MET'MAP, your aeronautical weather chart ! - Copyright ORBIFLY December 2007 - Disclaimer

ORBIFLY MET'MAP TEAM :

Programming & Development : Alexandra Zaïnal
Concept & Development : Baudouin d'Aumeries
Co-Development & Prog : Marc-Olivier Méhu
Technical & hardware support : Manuel Goepfert

Contact : metmap@orbifly.com




SOURCES & CREDITS :

   NOAA